Almagrundet, Sweden

3:37 AM CEST on July 25, 2016 (GMT +0200)
Sandhamn Trouville | | Change Station

Elev 10 ft 59.28 °N, 18.93 °E | Updated 5 minutes ago

Clear
Clear
65.8 °F
Feels Like 65.8 °F
N
0.6
Wind Variable Wind from South

Today
High -- | Low -- °F
--% Chance of Precip.
Yesterday
High -- | Low -- °F
Precip. -- in
Pressure 30.09 in
Visibility 6.2 miles
Clouds
Dew Point 63 °F
Humidity 93%
Rainfall Not available.
Snow Depth Not available.
4:15 AM 9:23 PM
Waning Gibbous, 71% visible
METAR ESSB 250120Z AUTO 13001KT 9999 NCD 16/15 Q1019
Pressure 30.09 in
Visibility 6.2 miles
Clouds
Dew Point 63 °F
Humidity 93%
Rainfall Not available.
Snow Depth Not available.
4:15 AM 9:23 PM
Waning Gibbous, 71% visible
METAR ESSB 250120Z AUTO 13001KT 9999 NCD 16/15 Q1019

10-Day Weather Forecast

×

Almanac

Astronomy

Jul. 25, 2016 Rise Set
Actual Time
Civil Twilight
Nautical Twilight
Astronomical Twilight
Moon
Length of Visible Light
Length of Day
Tomorrow will be .
, % of the Moon is Illuminated

Today's Extremes

Country Highs Country Lows

Community

WunderPhotos

Upload Photos

1,927,226 photos uploaded!

WunderBlog® & News

Nearby

Air Quality

  Air Quality AQ Index Pollutant
Not available.

Snow Depth

Station Depth Elevation

Earthquake Activity

City Distance Mag. Time & Date
Minimum magnitude displayed is 2.5.

Coastal Water Temperatures

Place Temperature

Stations

Nearby Weather Stations

Station Location Temp. Windchill Dew Point Humidity Wind Precip. Elev Updated Type